PWSweather.com
Personal Weather Stations
Station Observations
LAKENACI1
Oak Shores Lake Nacimiento, Bradley, CA 93426

Oak Shores Lake NacimientoBradley, CA 93426

Lat: 35.749704, Lon: -120.988075

Elevation: 811

Station Type: Rain wise MK-III

https://www.rainwise.net/weather/JMConstructionOS

Latest ConditionsUpdated 7:54:00 AM PDT Wednesday, Jun 20, 2018
Currently Today's Max Today's Min Today's Average
Temperature 59.8°F15.4°C 62.5°F16.9°C 53.0°F11.7°C 56.7°F13.7°C
Dew Point 53.3°F11.8°C 53.3°F11.8°C 47.8°F8.8°C 49.6°F9.8°C
Winds 0.7 mph SSW1.1 kmh SSW 2.9 mph -4.7 kmh - - 0.1 mph 0.2 kmh
Wind Gusts 1.5 mph2.4 kmh 3.4 mph5.5 kmh - -
Humidity 79% 88% 60% 78%
Pressure 29.12 in986.1 mb 29.12 in986.1 mb 29.09 in985.1 mb -
Hour Temp Dew Point Humidity Winds Wind Gusts Pressure Precip Precip Rate Daily Precip Total
07:54 AM 59.8°F15.4°C 53.3°F11.8°C 79% 0.7 mph SSW1.1 kmh SSW 1.5 mph2.4 kmh 29.12 in986.1 mb 0.00 in0.0 mm 0.00 in0.0 mm 0.00 in0.0 mm
07:49 AM 59.3°F15.2°C 53.1°F11.7°C 80% 0.5 mph SSW0.8 kmh SSW 0.9 mph1.4 kmh 29.12 in986.1 mb 0.00 in0.0 mm 0.00 in0.0 mm 0.00 in0.0 mm
07:44 AM 58.7°F14.8°C 52.9°F11.6°C 81% 0.7 mph SSW1.1 kmh SSW 1.2 mph1.9 kmh 29.12 in986.1 mb 0.00 in0.0 mm 0.00 in0.0 mm 0.00 in0.0 mm
07:39 AM 58.0°F14.4°C 52.5°F11.4°C 82% Calm Calm -- 29.12 in986.1 mb 0.00 in0.0 mm 0.00 in0.0 mm 0.00 in0.0 mm
07:34 AM 57.5°F14.2°C 52.0°F11.1°C 82% Calm Calm -- 29.12 in986.1 mb 0.00 in0.0 mm 0.00 in0.0 mm 0.00 in0.0 mm
07:29 AM 57.1°F13.9°C 52.3°F11.3°C 84% Calm Calm 0.3 mph0.5 kmh 29.12 in986.1 mb 0.00 in0.0 mm 0.00 in0.0 mm 0.00 in0.0 mm
07:24 AM 56.6°F13.7°C 51.5°F10.8°C 83% 0.2 mph SSE0.3 kmh SSE 0.9 mph1.4 kmh 29.12 in986.1 mb 0.00 in0.0 mm 0.00 in0.0 mm 0.00 in0.0 mm
07:19 AM 56.1°F13.4°C 51.7°F10.9°C 85% Calm Calm -- 29.12 in986.1 mb 0.00 in0.0 mm 0.00 in0.0 mm 0.00 in0.0 mm
07:14 AM 55.6°F13.1°C 51.2°F10.7°C 85% Calm Calm -- 29.12 in986.1 mb 0.00 in0.0 mm 0.00 in0.0 mm 0.00 in0.0 mm
07:09 AM 55.3°F12.9°C 50.9°F10.5°C 85% Calm Calm -- 29.12 in986.1 mb 0.00 in0.0 mm 0.00 in0.0 mm 0.00 in0.0 mm
07:04 AM 55.0°F12.8°C 50.6°F10.3°C 85% Calm Calm -- 29.12 in986.1 mb 0.00 in0.0 mm 0.00 in0.0 mm 0.00 in0.0 mm
06:59 AM 54.7°F12.6°C 50.0°F10.0°C 84% Calm Calm -- 29.12 in986.1 mb 0.00 in0.0 mm 0.00 in0.0 mm 0.00 in0.0 mm
06:54 AM 54.4°F12.4°C 50.0°F10.0°C 85% Calm Calm -- 29.11 in985.8 mb 0.00 in0.0 mm 0.00 in0.0 mm 0.00 in0.0 mm
06:49 AM 53.9°F12.2°C 49.8°F9.9°C 86% 1.1 mph ENE1.8 kmh ENE 1.7 mph2.7 kmh 29.11 in985.8 mb 0.00 in0.0 mm 0.00 in0.0 mm 0.00 in0.0 mm
06:44 AM 53.2°F11.8°C 49.4°F9.7°C 87% 0.6 mph ENE1.0 kmh ENE 0.9 mph1.4 kmh 29.11 in985.8 mb 0.00 in0.0 mm 0.00 in0.0 mm 0.00 in0.0 mm
06:39 AM 53.0°F11.7°C 49.2°F9.6°C 87% Calm Calm -- 29.11 in985.8 mb 0.00 in0.0 mm 0.00 in0.0 mm 0.00 in0.0 mm
06:34 AM 53.0°F11.7°C 49.5°F9.7°C 88% Calm Calm -- 29.11 in985.8 mb 0.00 in0.0 mm 0.00 in0.0 mm 0.00 in0.0 mm
06:29 AM 53.0°F11.7°C 48.9°F9.4°C 86% Calm Calm -- 29.11 in985.8 mb 0.00 in0.0 mm 0.00 in0.0 mm 0.00 in0.0 mm
06:24 AM 53.0°F11.7°C 49.2°F9.6°C 87% Calm Calm -- 29.11 in985.8 mb 0.00 in0.0 mm 0.00 in0.0 mm 0.00 in0.0 mm
06:19 AM 53.1°F11.7°C 49.3°F9.6°C 87% Calm Calm -- 29.11 in985.8 mb 0.00 in0.0 mm 0.00 in0.0 mm 0.00 in0.0 mm
06:14 AM 53.2°F11.8°C 49.4°F9.7°C 87% Calm Calm -- 29.10 in985.4 mb 0.00 in0.0 mm 0.00 in0.0 mm 0.00 in0.0 mm
06:09 AM 53.2°F11.8°C 49.1°F9.5°C 86% Calm Calm -- 29.10 in985.4 mb 0.00 in0.0 mm 0.00 in0.0 mm 0.00 in0.0 mm
06:04 AM 53.3°F11.8°C 49.2°F9.6°C 86% Calm Calm -- 29.10 in985.4 mb 0.00 in0.0 mm 0.00 in0.0 mm 0.00 in0.0 mm
05:59 AM 53.3°F11.8°C 48.9°F9.4°C 85% Calm Calm -- 29.10 in985.4 mb 0.00 in0.0 mm 0.00 in0.0 mm 0.00 in0.0 mm
05:54 AM 53.5°F11.9°C 48.8°F9.3°C 84% Calm Calm -- 29.10 in985.4 mb 0.00 in0.0 mm 0.00 in0.0 mm 0.00 in0.0 mm
05:49 AM 53.6°F12.0°C 48.9°F9.4°C 84% Calm Calm -- 29.10 in985.4 mb 0.00 in0.0 mm 0.00 in0.0 mm 0.00 in0.0 mm
05:44 AM 53.6°F12.0°C 48.9°F9.4°C 84% Calm Calm -- 29.10 in985.4 mb 0.00 in0.0 mm 0.00 in0.0 mm 0.00 in0.0 mm
05:39 AM 53.7°F12.1°C 49.3°F9.6°C 85% Calm Calm -- 29.10 in985.4 mb 0.00 in0.0 mm 0.00 in0.0 mm 0.00 in0.0 mm
05:34 AM 53.9°F12.2°C 49.5°F9.7°C 85% Calm Calm -- 29.10 in985.4 mb 0.00 in0.0 mm 0.00 in0.0 mm 0.00 in0.0 mm
05:29 AM 54.1°F12.3°C 49.7°F9.8°C 85% Calm Calm -- 29.10 in985.4 mb 0.00 in0.0 mm 0.00 in0.0 mm 0.00 in0.0 mm
05:24 AM 54.2°F12.3°C 49.5°F9.7°C 84% Calm Calm -- 29.10 in985.4 mb 0.00 in0.0 mm 0.00 in0.0 mm 0.00 in0.0 mm
05:19 AM 54.3°F12.4°C 49.6°F9.8°C 84% Calm Calm -- 29.10 in985.4 mb 0.00 in0.0 mm 0.00 in0.0 mm 0.00 in0.0 mm
05:14 AM 54.7°F12.6°C 49.6°F9.8°C 83% Calm Calm -- 29.10 in985.4 mb 0.00 in0.0 mm 0.00 in0.0 mm 0.00 in0.0 mm
05:09 AM 55.1°F12.8°C 50.4°F10.2°C 84% Calm Calm -- 29.10 in985.4 mb 0.00 in0.0 mm 0.00 in0.0 mm 0.00 in0.0 mm
05:04 AM 55.5°F13.1°C 50.7°F10.4°C 84% Calm Calm -- 29.10 in985.4 mb 0.00 in0.0 mm 0.00 in0.0 mm 0.00 in0.0 mm
04:59 AM 55.8°F13.2°C 51.0°F10.6°C 84% Calm Calm -- 29.10 in985.4 mb 0.00 in0.0 mm 0.00 in0.0 mm 0.00 in0.0 mm
04:54 AM 56.0°F13.3°C 51.2°F10.7°C 84% 0.2 mph SSW0.3 kmh SSW 0.6 mph1.0 kmh 29.10 in985.4 mb 0.00 in0.0 mm 0.00 in0.0 mm 0.00 in0.0 mm
04:49 AM 56.0°F13.3°C 51.2°F10.7°C 84% Calm Calm -- 29.10 in985.4 mb 0.00 in0.0 mm 0.00 in0.0 mm 0.00 in0.0 mm
04:44 AM 55.8°F13.2°C 50.7°F10.4°C 83% Calm Calm -- 29.10 in985.4 mb 0.00 in0.0 mm 0.00 in0.0 mm 0.00 in0.0 mm
04:39 AM 55.5°F13.1°C 50.7°F10.4°C 84% Calm Calm -- 29.10 in985.4 mb 0.00 in0.0 mm 0.00 in0.0 mm 0.00 in0.0 mm
04:34 AM 55.2°F12.9°C 50.1°F10.1°C 83% 0.1 mph SSW0.2 kmh SSW 0.4 mph0.6 kmh 29.10 in985.4 mb 0.00 in0.0 mm 0.00 in0.0 mm 0.00 in0.0 mm
04:29 AM 55.2°F12.9°C 49.8°F9.9°C 82% Calm Calm -- 29.10 in985.4 mb 0.00 in0.0 mm 0.00 in0.0 mm 0.00 in0.0 mm
04:24 AM 55.1°F12.8°C 49.4°F9.7°C 81% Calm Calm -- 29.10 in985.4 mb 0.00 in0.0 mm 0.00 in0.0 mm 0.00 in0.0 mm
04:19 AM 55.0°F12.8°C 49.3°F9.6°C 81% Calm Calm -- 29.10 in985.4 mb 0.00 in0.0 mm 0.00 in0.0 mm 0.00 in0.0 mm
04:14 AM 55.1°F12.8°C 48.7°F9.3°C 79% Calm Calm -- 29.10 in985.4 mb 0.00 in0.0 mm 0.00 in0.0 mm 0.00 in0.0 mm
04:09 AM 55.2°F12.9°C 49.1°F9.5°C 80% Calm Calm -- 29.10 in985.4 mb 0.00 in0.0 mm 0.00 in0.0 mm 0.00 in0.0 mm
04:04 AM 55.2°F12.9°C 48.8°F9.3°C 79% Calm Calm -- 29.10 in985.4 mb 0.00 in0.0 mm 0.00 in0.0 mm 0.00 in0.0 mm
03:59 AM 55.3°F12.9°C 48.6°F9.2°C 78% Calm Calm -- 29.10 in985.4 mb 0.00 in0.0 mm 0.00 in0.0 mm 0.00 in0.0 mm
03:54 AM 55.3°F12.9°C 48.9°F9.4°C 79% Calm Calm -- 29.10 in985.4 mb 0.00 in0.0 mm 0.00 in0.0 mm 0.00 in0.0 mm
03:49 AM 55.3°F12.9°C 48.9°F9.4°C 79% 0.2 mph E0.3 kmh E 1.0 mph1.6 kmh 29.10 in985.4 mb 0.00 in0.0 mm 0.00 in0.0 mm 0.00 in0.0 mm
03:44 AM 55.5°F13.1°C 49.1°F9.5°C 79% Calm Calm -- 29.10 in985.4 mb 0.00 in0.0 mm 0.00 in0.0 mm 0.00 in0.0 mm
03:39 AM 55.4°F13.0°C 49.0°F9.4°C 79% Calm Calm -- 29.09 in985.1 mb 0.00 in0.0 mm 0.00 in0.0 mm 0.00 in0.0 mm
03:34 AM 55.3°F12.9°C 48.9°F9.4°C 79% Calm Calm -- 29.10 in985.4 mb 0.00 in0.0 mm 0.00 in0.0 mm 0.00 in0.0 mm
03:29 AM 55.4°F13.0°C 49.3°F9.6°C 80% Calm Calm -- 29.10 in985.4 mb 0.00 in0.0 mm 0.00 in0.0 mm 0.00 in0.0 mm
03:24 AM 55.4°F13.0°C 49.3°F9.6°C 80% Calm Calm -- 29.10 in985.4 mb 0.00 in0.0 mm 0.00 in0.0 mm 0.00 in0.0 mm
03:19 AM 55.5°F13.1°C 49.4°F9.7°C 80% Calm Calm -- 29.10 in985.4 mb 0.00 in0.0 mm 0.00 in0.0 mm 0.00 in0.0 mm
03:14 AM 55.6°F13.1°C 49.5°F9.7°C 80% Calm Calm -- 29.10 in985.4 mb 0.00 in0.0 mm 0.00 in0.0 mm 0.00 in0.0 mm
03:09 AM 55.7°F13.2°C 49.3°F9.6°C 79% Calm Calm -- 29.10 in985.4 mb 0.00 in0.0 mm 0.00 in0.0 mm 0.00 in0.0 mm
03:04 AM 55.8°F13.2°C 49.0°F9.4°C 78% Calm Calm -- 29.10 in985.4 mb 0.00 in0.0 mm 0.00 in0.0 mm 0.00 in0.0 mm
02:59 AM 56.0°F13.3°C 48.9°F9.4°C 77% Calm Calm -- 29.10 in985.4 mb 0.00 in0.0 mm 0.00 in0.0 mm 0.00 in0.0 mm
02:54 AM 56.1°F13.4°C 49.3°F9.6°C 78% Calm Calm -- 29.10 in985.4 mb 0.00 in0.0 mm 0.00 in0.0 mm 0.00 in0.0 mm
02:49 AM 56.2°F13.4°C 49.1°F9.5°C 77% Calm Calm -- 29.10 in985.4 mb 0.00 in0.0 mm 0.00 in0.0 mm 0.00 in0.0 mm
02:44 AM 56.3°F13.5°C 49.9°F9.9°C 79% Calm Calm -- 29.10 in985.4 mb 0.00 in0.0 mm 0.00 in0.0 mm 0.00 in0.0 mm
02:39 AM 56.3°F13.5°C 49.5°F9.7°C 78% Calm Calm -- 29.10 in985.4 mb 0.00 in0.0 mm 0.00 in0.0 mm 0.00 in0.0 mm
02:34 AM 56.3°F13.5°C 49.5°F9.7°C 78% Calm Calm -- 29.10 in985.4 mb 0.00 in0.0 mm 0.00 in0.0 mm 0.00 in0.0 mm
02:29 AM 56.5°F13.6°C 49.0°F9.4°C 76% Calm Calm -- 29.10 in985.4 mb 0.00 in0.0 mm 0.00 in0.0 mm 0.00 in0.0 mm
02:24 AM 56.7°F13.7°C 48.9°F9.4°C 75% Calm Calm -- 29.10 in985.4 mb 0.00 in0.0 mm 0.00 in0.0 mm 0.00 in0.0 mm
02:19 AM 57.0°F13.9°C 48.8°F9.3°C 74% Calm Calm -- 29.10 in985.4 mb 0.00 in0.0 mm 0.00 in0.0 mm 0.00 in0.0 mm
02:14 AM 57.2°F14.0°C 48.6°F9.2°C 73% Calm Calm -- 29.10 in985.4 mb 0.00 in0.0 mm 0.00 in0.0 mm 0.00 in0.0 mm
02:09 AM 57.5°F14.2°C 48.2°F9.0°C 71% Calm Calm -- 29.10 in985.4 mb 0.00 in0.0 mm 0.00 in0.0 mm 0.00 in0.0 mm
02:04 AM 57.7°F14.3°C 48.4°F9.1°C 71% Calm Calm -- 29.11 in985.8 mb 0.00 in0.0 mm 0.00 in0.0 mm 0.00 in0.0 mm
01:59 AM 58.0°F14.4°C 48.3°F9.1°C 70% Calm Calm -- 29.11 in985.8 mb 0.00 in0.0 mm 0.00 in0.0 mm 0.00 in0.0 mm
01:54 AM 58.1°F14.5°C 48.4°F9.1°C 70% Calm Calm -- 29.11 in985.8 mb 0.00 in0.0 mm 0.00 in0.0 mm 0.00 in0.0 mm
01:49 AM 58.3°F14.6°C 47.8°F8.8°C 68% Calm Calm -- 29.11 in985.8 mb 0.00 in0.0 mm 0.00 in0.0 mm 0.00 in0.0 mm
01:44 AM 58.7°F14.8°C 48.6°F9.2°C 69% Calm Calm -- 29.11 in985.8 mb 0.00 in0.0 mm 0.00 in0.0 mm 0.00 in0.0 mm
01:39 AM 59.0°F15.0°C 48.8°F9.3°C 69% Calm Calm -- 29.11 in985.8 mb 0.00 in0.0 mm 0.00 in0.0 mm 0.00 in0.0 mm
01:34 AM 59.2°F15.1°C 49.0°F9.4°C 69% Calm Calm -- 29.11 in985.8 mb 0.00 in0.0 mm 0.00 in0.0 mm 0.00 in0.0 mm
01:29 AM 59.3°F15.2°C 49.1°F9.5°C 69% Calm Calm -- 29.11 in985.8 mb 0.00 in0.0 mm 0.00 in0.0 mm 0.00 in0.0 mm
01:24 AM 59.5°F15.3°C 49.3°F9.6°C 69% 1.0 mph E1.6 kmh E 1.5 mph2.4 kmh 29.11 in985.8 mb 0.00 in0.0 mm 0.00 in0.0 mm 0.00 in0.0 mm
01:19 AM 59.6°F15.3°C 49.0°F9.4°C 68% 0.5 mph E0.8 kmh E 0.9 mph1.4 kmh 29.11 in985.8 mb 0.00 in0.0 mm 0.00 in0.0 mm 0.00 in0.0 mm
01:14 AM 59.7°F15.4°C 49.5°F9.7°C 69% Calm Calm -- 29.11 in985.8 mb 0.00 in0.0 mm 0.00 in0.0 mm 0.00 in0.0 mm
01:09 AM 59.8°F15.4°C 49.2°F9.6°C 68% Calm Calm -- 29.12 in986.1 mb 0.00 in0.0 mm 0.00 in0.0 mm 0.00 in0.0 mm
01:04 AM 60.1°F15.6°C 49.1°F9.5°C 67% 0.1 mph ESE0.2 kmh ESE 0.3 mph0.5 kmh 29.11 in985.8 mb 0.00 in0.0 mm 0.00 in0.0 mm 0.00 in0.0 mm
12:59 AM 60.4°F15.8°C 49.4°F9.7°C 67% Calm Calm -- 29.12 in986.1 mb 0.00 in0.0 mm 0.00 in0.0 mm 0.00 in0.0 mm
12:54 AM 60.7°F15.9°C 49.3°F9.6°C 66% Calm Calm -- 29.12 in986.1 mb 0.00 in0.0 mm 0.00 in0.0 mm 0.00 in0.0 mm
12:49 AM 61.0°F16.1°C 49.6°F9.8°C 66% Calm Calm -- 29.12 in986.1 mb 0.00 in0.0 mm 0.00 in0.0 mm 0.00 in0.0 mm
12:44 AM 61.2°F16.2°C 49.3°F9.6°C 65% 0.2 mph ESE0.3 kmh ESE 0.5 mph0.8 kmh 29.12 in986.1 mb 0.00 in0.0 mm 0.00 in0.0 mm 0.00 in0.0 mm
12:39 AM 61.4°F16.3°C 49.1°F9.5°C 64% 0.2 mph E0.3 kmh E 0.6 mph1.0 kmh 29.12 in986.1 mb 0.00 in0.0 mm 0.00 in0.0 mm 0.00 in0.0 mm
12:34 AM 61.6°F16.4°C 48.9°F9.4°C 63% 2.5 mph E4.0 kmh E 3.3 mph5.3 kmh 29.12 in986.1 mb 0.00 in0.0 mm 0.00 in0.0 mm 0.00 in0.0 mm
12:29 AM 61.6°F16.4°C 48.9°F9.4°C 63% 1.5 mph ENE2.4 kmh ENE 2.3 mph3.7 kmh 29.12 in986.1 mb 0.00 in0.0 mm 0.00 in0.0 mm 0.00 in0.0 mm
12:24 AM 61.7°F16.5°C 48.5°F9.2°C 62% Calm Calm -- 29.12 in986.1 mb 0.00 in0.0 mm 0.00 in0.0 mm 0.00 in0.0 mm
12:19 AM 62.0°F16.7°C 48.4°F9.1°C 61% Calm Calm -- 29.12 in986.1 mb 0.00 in0.0 mm 0.00 in0.0 mm 0.00 in0.0 mm
12:14 AM 62.3°F16.8°C 48.7°F9.3°C 61% Calm Calm -- 29.12 in986.1 mb 0.00 in0.0 mm 0.00 in0.0 mm 0.00 in0.0 mm
12:09 AM 62.5°F16.9°C 48.4°F9.1°C 60% Calm Calm -- 29.12 in986.1 mb 0.00 in0.0 mm 0.00 in0.0 mm 0.00 in0.0 mm
12:04 AM 62.3°F16.8°C 48.7°F9.3°C 61% 2.9 mph ESE4.7 kmh ESE 3.4 mph5.5 kmh 29.12 in986.1 mb 0.00 in0.0 mm 0.00 in0.0 mm 0.00 in0.0 mm
12:00 AM 62.3°F16.8°C 48.2°F9.0°C 60% 0.1 mph E0.2 kmh E 0.6 mph1.0 kmh 29.12 in986.1 mb 0.00 in0.0 mm 0.00 in0.0 mm 0.00 in0.0 mm